Haverhill, Massachusetts
Traffic Map
Current Weather Conditions
Haverhill, Massachusetts
Broken Clouds
Broken Clouds
73°
Feels Like: 73°
Wind Chill: 73° Ceiling: 5500
Heat Index: 73° Visibility: 10mi
Dew Point: 62° Wind: 3mph
Humidity: 68% Direction: 290° (WNW)
Pressure: 29.84in Gusts: 0mph
Raw Report DataKLWM 241554Z 29003KT 10SM BKN055 23/17 A2984 RMK AO2 SLP102 T02280167
Traffic Incident Summary
Active as of:
Severity:
Category:
InformationThere was an issue retrieving the traffic information for this location. Please try a different location or try again shortly.
Advertisements